createdAt,value
2018-11-22T00:00:18.874Z,19.80
2018-11-22T00:02:48.463Z,19.70
2018-11-22T00:05:17.443Z,19.80
2018-11-22T00:07:46.172Z,19.70
2018-11-22T00:10:14.527Z,19.70
2018-11-22T00:12:42.902Z,19.70
2018-11-22T00:15:13.474Z,19.60
2018-11-22T00:17:42.430Z,19.60
2018-11-22T00:20:11.206Z,19.60
2018-11-22T00:22:39.620Z,19.60
2018-11-22T00:25:09.508Z,19.60
2018-11-22T00:27:38.009Z,19.60
2018-11-22T00:30:09.534Z,19.60
2018-11-22T00:32:38.447Z,19.60
2018-11-22T00:35:08.570Z,19.60
2018-11-22T00:37:37.071Z,19.50
2018-11-22T00:40:09.076Z,19.50
2018-11-22T00:42:37.618Z,19.50
2018-11-22T00:45:08.543Z,19.50
2018-11-22T00:47:37.172Z,19.50
2018-11-22T00:50:06.320Z,19.50
2018-11-22T00:52:34.760Z,19.40
2018-11-22T00:55:03.116Z,19.40
2018-11-22T00:57:31.821Z,19.40
2018-11-22T01:00:00.224Z,19.40
2018-11-22T01:02:28.593Z,19.40
2018-11-22T01:04:57.277Z,19.40
2018-11-22T01:07:26.035Z,19.30
2018-11-22T01:09:54.469Z,19.30
2018-11-22T01:12:22.829Z,19.30
2018-11-22T01:14:51.553Z,19.30
2018-11-22T01:17:19.918Z,19.30
2018-11-22T01:19:48.671Z,19.30
2018-11-22T01:22:17.068Z,19.20
2018-11-22T01:24:45.422Z,19.30
2018-11-22T01:27:13.777Z,19.20
2018-11-22T01:29:42.249Z,19.20
2018-11-22T01:32:10.606Z,19.20
2018-11-22T01:34:39.300Z,19.20
2018-11-22T01:37:07.822Z,19.10
2018-11-22T01:39:36.532Z,19.10
2018-11-22T01:42:05.085Z,19.10
2018-11-22T01:44:33.845Z,19.10
2018-11-22T01:47:02.279Z,19.10
2018-11-22T01:49:31.380Z,19.10
2018-11-22T01:51:59.780Z,19.10
2018-11-22T01:54:28.151Z,19.10
2018-11-22T01:56:56.526Z,19.00
2018-11-22T01:59:24.899Z,19.00
2018-11-22T02:01:53.349Z,19.00
2018-11-22T02:04:21.714Z,19.00
2018-11-22T02:06:50.267Z,19.00
2018-11-22T02:09:18.940Z,19.00
2018-11-22T02:11:47.305Z,19.00
2018-11-22T02:14:15.689Z,19.00
2018-11-22T02:16:44.063Z,19.00
2018-11-22T02:19:12.498Z,18.90
2018-11-22T02:21:41.282Z,18.90
2018-11-22T02:24:09.966Z,18.90
2018-11-22T02:26:38.330Z,18.90
2018-11-22T02:29:06.804Z,18.90
2018-11-22T02:31:35.528Z,18.90
2018-11-22T02:34:03.885Z,18.80
2018-11-22T02:36:32.271Z,18.80
2018-11-22T02:39:00.628Z,18.80
2018-11-22T02:41:29.271Z,18.80
2018-11-22T02:43:57.638Z,18.80
2018-11-22T02:46:25.996Z,18.80
2018-11-22T02:48:54.355Z,18.80
2018-11-22T02:51:22.862Z,18.80
2018-11-22T02:53:51.296Z,18.70
2018-11-22T02:56:19.984Z,18.70
2018-11-22T02:58:48.382Z,18.70
2018-11-22T03:01:16.822Z,18.70
2018-11-22T03:03:45.185Z,18.70
2018-11-22T03:06:13.571Z,18.60
2018-11-22T03:08:42.319Z,18.70
2018-11-22T03:11:10.672Z,18.60
2018-11-22T03:13:39.067Z,18.60
2018-11-22T03:16:07.925Z,18.70
2018-11-22T03:18:36.288Z,18.60
2018-11-22T03:21:04.685Z,18.60
2018-11-22T03:23:33.042Z,18.60
2018-11-22T03:26:01.671Z,18.60
2018-11-22T03:28:30.070Z,18.60
2018-11-22T03:30:58.432Z,18.60
2018-11-22T03:33:27.118Z,18.50
2018-11-22T03:35:55.510Z,18.50
2018-11-22T03:38:24.205Z,18.50
2018-11-22T03:40:52.927Z,18.50
2018-11-22T03:43:24.815Z,18.50
2018-11-22T03:45:53.199Z,18.50
2018-11-22T03:48:21.542Z,18.50
2018-11-22T03:50:49.949Z,18.50
2018-11-22T03:53:18.685Z,18.50
2018-11-22T03:55:47.056Z,18.50
2018-11-22T03:58:15.782Z,18.40
2018-11-22T04:00:44.150Z,18.40
2018-11-22T04:03:12.510Z,18.40
2018-11-22T04:05:40.896Z,18.40
2018-11-22T04:08:09.264Z,18.40
2018-11-22T04:10:37.641Z,18.40
2018-11-22T04:13:06.082Z,18.40
2018-11-22T04:15:34.436Z,18.40
2018-11-22T04:18:03.390Z,18.30
2018-11-22T04:20:32.852Z,18.40
2018-11-22T04:23:01.218Z,18.30
2018-11-22T04:25:29.679Z,18.30
2018-11-22T04:28:00.999Z,18.30
2018-11-22T04:30:30.918Z,18.30
2018-11-22T04:32:59.718Z,18.30
2018-11-22T04:35:28.876Z,18.30
2018-11-22T04:37:57.262Z,18.20
2018-11-22T04:40:27.035Z,18.20
2018-11-22T04:42:56.185Z,18.20
2018-11-22T04:45:24.627Z,18.20
2018-11-22T04:47:54.491Z,18.20
2018-11-22T04:50:24.277Z,18.20
2018-11-22T04:52:52.706Z,18.20
2018-11-22T04:55:21.131Z,18.20
2018-11-22T04:57:49.924Z,18.20
2018-11-22T05:00:19.505Z,18.20
2018-11-22T05:02:48.247Z,18.20
2018-11-22T05:05:18.138Z,18.10
2018-11-22T05:07:46.509Z,18.10
2018-11-22T05:10:16.612Z,18.10
2018-11-22T05:15:15.434Z,18.10
2018-11-22T05:17:44.321Z,18.10
2018-11-22T05:20:16.919Z,18.10
2018-11-22T05:22:45.654Z,18.10
2018-11-22T05:25:14.367Z,18.10
2018-11-22T05:27:43.315Z,18.00
2018-11-22T05:30:17.353Z,18.00
2018-11-22T05:32:46.478Z,18.10
2018-11-22T05:35:15.585Z,18.00
2018-11-22T05:37:43.940Z,18.00
2018-11-22T05:40:23.736Z,18.00
2018-11-22T05:42:52.420Z,18.00
2018-11-22T05:45:25.170Z,18.00
2018-11-22T05:47:53.942Z,18.00
2018-11-22T05:50:26.426Z,18.00
2018-11-22T05:52:56.470Z,17.90
2018-11-22T05:55:24.861Z,18.00
2018-11-22T05:57:53.205Z,18.00
2018-11-22T06:00:28.987Z,18.00
2018-11-22T06:02:58.265Z,17.90
2018-11-22T06:05:27.630Z,17.90
2018-11-22T06:07:56.006Z,17.90
2018-11-22T06:10:25.960Z,17.90
2018-11-22T06:12:55.259Z,17.90
2018-11-22T06:15:24.318Z,17.90
2018-11-22T06:17:53.766Z,17.90
2018-11-22T06:20:23.568Z,17.80
2018-11-22T06:22:52.394Z,17.80
2018-11-22T06:25:21.467Z,17.80
2018-11-22T06:27:50.568Z,17.80
2018-11-22T06:30:23.573Z,17.80
2018-11-22T06:32:56.653Z,17.80
2018-11-22T06:35:26.175Z,17.80
2018-11-22T06:37:54.645Z,17.80
2018-11-22T06:40:23.007Z,17.80
2018-11-22T06:42:52.334Z,17.90
2018-11-22T06:45:22.027Z,17.90
2018-11-22T06:47:50.418Z,18.00
2018-11-22T06:50:19.842Z,18.00
2018-11-22T06:52:48.277Z,18.10
2018-11-22T06:55:33.476Z,18.20
2018-11-22T06:58:02.242Z,18.30
2018-11-22T12:15:53.232Z,20.80
2018-11-22T12:18:21.658Z,20.80
2018-11-22T12:20:50.191Z,20.80
2018-11-22T12:23:20.809Z,20.80
2018-11-22T12:25:49.210Z,20.80
2018-11-22T12:28:17.629Z,20.80
2018-11-22T12:30:46.129Z,20.70
2018-11-22T12:33:20.808Z,20.70
2018-11-22T12:35:55.578Z,20.80
2018-11-22T12:38:29.437Z,20.80
2018-11-22T12:40:58.184Z,20.80
2018-11-22T12:43:26.582Z,20.70
2018-11-22T12:45:55.039Z,20.80
2018-11-22T12:48:23.515Z,20.70
2018-11-22T12:50:51.945Z,20.70
2018-11-22T12:53:20.495Z,20.70
2018-11-22T12:55:49.006Z,20.60
2018-11-22T12:58:17.596Z,20.60
2018-11-22T13:00:46.155Z,20.70
2018-11-22T13:03:14.640Z,20.70
2018-11-22T13:05:43.112Z,20.60
2018-11-22T13:08:11.644Z,20.60
2018-11-22T13:10:40.170Z,20.60
2018-11-22T13:13:08.617Z,20.60
2018-11-22T13:15:37.057Z,20.60
2018-11-22T13:18:05.727Z,20.50
2018-11-22T13:20:34.133Z,20.50
2018-11-22T13:23:02.589Z,20.50
2018-11-22T13:25:31.007Z,20.40
2018-11-22T13:27:59.430Z,20.50
2018-11-22T13:30:28.902Z,20.40
2018-11-22T13:32:57.986Z,20.50
2018-11-22T13:35:26.534Z,20.40
2018-11-22T13:37:55.878Z,20.40
2018-11-22T13:40:24.352Z,20.40
2018-11-22T13:42:53.563Z,20.40
2018-11-22T13:45:24.004Z,20.40
2018-11-22T13:47:53.708Z,20.50
2018-11-22T13:50:24.949Z,20.40
2018-11-22T13:52:55.069Z,20.50
2018-11-22T13:55:34.095Z,20.40
2018-11-22T13:58:02.849Z,20.40
2018-11-22T14:00:32.584Z,20.40
2018-11-22T14:03:03.650Z,20.30
2018-11-22T14:05:53.513Z,20.30
2018-11-22T14:08:22.026Z,20.30
2018-11-22T14:10:50.538Z,20.30
2018-11-22T14:13:18.936Z,20.30
2018-11-22T14:15:47.454Z,20.30
2018-11-22T14:18:15.861Z,20.30
2018-11-22T14:20:44.455Z,20.30
2018-11-22T14:23:12.902Z,20.30
2018-11-22T14:25:41.383Z,20.30
2018-11-22T14:28:10.431Z,20.30
2018-11-22T14:30:46.098Z,20.40
2018-11-22T14:33:14.498Z,20.40
2018-11-22T14:35:43.048Z,20.30
2018-11-22T14:38:12.412Z,20.30
2018-11-22T14:40:40.862Z,20.30
2018-11-22T14:43:26.526Z,20.30
2018-11-22T14:45:55.106Z,20.30
2018-11-22T14:48:24.153Z,20.30
2018-11-22T14:51:00.936Z,20.20
2018-11-22T14:53:53.199Z,20.20
2018-11-22T14:56:21.663Z,20.20
2018-11-22T14:58:50.155Z,20.10
2018-11-22T15:01:18.563Z,20.10
2018-11-22T15:03:47.557Z,20.10
2018-11-22T15:06:15.967Z,20.10
2018-11-22T15:08:44.386Z,20.20
2018-11-22T15:11:12.956Z,20.20
2018-11-22T15:13:41.366Z,20.20
2018-11-22T15:16:09.802Z,20.20
2018-11-22T15:18:38.701Z,20.20
2018-11-22T15:21:07.240Z,20.20
2018-11-22T15:23:35.658Z,20.20
2018-11-22T15:26:04.205Z,20.20
2018-11-22T15:28:32.678Z,20.10
2018-11-22T15:31:16.084Z,20.20
2018-11-22T15:33:44.511Z,20.20
2018-11-22T15:36:13.139Z,20.10
2018-11-22T15:38:41.575Z,20.20
2018-11-22T15:42:13.296Z,20.20
2018-11-22T15:44:41.739Z,20.20
2018-11-22T15:47:10.320Z,20.20
2018-11-22T15:49:38.724Z,20.20
2018-11-22T15:52:11.313Z,20.20
2018-11-22T15:54:40.222Z,20.20
2018-11-22T15:57:08.655Z,20.20
2018-11-22T15:59:37.097Z,20.20
2018-11-22T16:02:05.787Z,20.20
2018-11-22T16:04:51.051Z,20.20
2018-11-22T16:07:19.559Z,20.10
2018-11-22T16:09:48.171Z,20.10
2018-11-22T16:12:16.688Z,20.10
2018-11-22T16:17:42.399Z,20.20
2018-11-22T16:20:10.974Z,20.20
2018-11-22T16:22:39.978Z,20.10
2018-11-22T16:25:10.281Z,20.10
2018-11-22T16:27:38.978Z,20.10
2018-11-22T16:30:12.109Z,20.10
2018-11-22T16:32:40.587Z,20.10
2018-11-22T16:35:11.015Z,20.10
2018-11-22T16:37:39.530Z,20.20
2018-11-22T16:40:10.017Z,20.30
2018-11-22T16:42:39.214Z,20.20
2018-11-22T16:45:13.877Z,20.30
2018-11-22T16:47:42.977Z,20.20
2018-11-22T16:50:31.212Z,20.20
2018-11-22T16:52:59.657Z,20.20
2018-11-22T16:55:28.536Z,20.30
2018-11-22T16:57:58.356Z,20.30
2018-11-22T17:00:29.826Z,20.30
2018-11-22T17:03:03.000Z,20.20
2018-11-22T17:05:31.791Z,20.30
2018-11-22T17:08:01.821Z,20.30
2018-11-22T17:10:31.334Z,20.40
2018-11-22T17:13:01.036Z,20.50
2018-11-22T17:15:34.625Z,20.60
2018-11-22T17:18:03.823Z,20.70
2018-11-22T17:20:32.725Z,20.80
2018-11-22T17:23:01.749Z,20.90
2018-11-22T17:25:31.525Z,21.00
2018-11-22T17:28:01.457Z,21.00
2018-11-22T17:30:32.273Z,20.90
2018-11-22T17:33:00.842Z,20.90
2018-11-22T17:35:30.304Z,20.90
2018-11-22T17:38:00.196Z,20.90
2018-11-22T17:40:30.228Z,20.90
2018-11-22T17:42:58.661Z,20.80
2018-11-22T17:45:28.697Z,20.80
2018-11-22T17:47:57.225Z,20.80
2018-11-22T17:50:28.134Z,20.80
2018-11-22T17:53:04.403Z,20.70
2018-11-22T17:55:34.409Z,20.70
2018-11-22T17:58:03.142Z,20.70
2018-11-22T18:00:33.792Z,20.70
2018-11-22T18:03:03.233Z,20.70
2018-11-22T18:05:32.137Z,20.70
2018-11-22T18:08:00.678Z,20.70
2018-11-22T18:10:31.560Z,20.70
2018-11-22T18:13:00.560Z,20.80
2018-11-22T18:15:30.600Z,20.90
2018-11-22T18:17:59.114Z,20.80
2018-11-22T18:20:28.983Z,20.90
2018-11-22T18:22:58.259Z,20.80
2018-11-22T18:25:28.185Z,20.80
2018-11-22T18:27:56.672Z,20.90
2018-11-22T18:30:29.366Z,20.80
2018-11-22T18:32:59.378Z,20.80
2018-11-22T18:35:27.882Z,20.80
2018-11-22T18:37:56.529Z,20.80
2018-11-22T18:40:27.314Z,20.80
2018-11-22T18:42:56.775Z,20.70
2018-11-22T18:45:30.320Z,20.70
2018-11-22T18:47:59.343Z,20.70
2018-11-22T18:50:28.676Z,20.70
2018-11-22T18:52:57.394Z,20.70
2018-11-22T18:55:39.724Z,20.70
2018-11-22T18:58:08.484Z,20.70
2018-11-22T19:00:38.668Z,20.70
2018-11-22T19:03:08.980Z,20.80
2018-11-22T19:05:38.036Z,20.80
2018-11-22T19:08:06.485Z,20.80
2018-11-22T19:10:36.418Z,20.80
2018-11-22T19:13:06.520Z,20.90
2018-11-22T19:15:36.640Z,20.80
2018-11-22T19:18:05.729Z,20.80
2018-11-22T19:20:40.374Z,20.90
2018-11-22T19:23:09.720Z,20.80
2018-11-22T19:25:38.625Z,20.80
2018-11-22T19:28:08.067Z,20.80
2018-11-22T19:30:41.356Z,20.80
2018-11-22T19:33:11.366Z,20.70
2018-11-22T19:36:03.676Z,20.70
2018-11-22T19:38:47.207Z,20.70
2018-11-22T19:41:15.674Z,20.70
2018-11-22T19:43:44.136Z,20.60
2018-11-22T19:46:12.672Z,20.70
2018-11-22T19:48:41.177Z,20.70
2018-11-22T19:51:26.941Z,20.70
2018-11-22T19:53:55.467Z,20.80
2018-11-22T19:56:24.853Z,20.80
2018-11-22T19:58:53.279Z,20.80
2018-11-22T20:01:21.733Z,20.80
2018-11-22T20:03:50.259Z,20.80
2018-11-22T20:06:18.804Z,20.80
2018-11-22T20:08:47.355Z,20.80
2018-11-22T20:11:15.926Z,20.80
2018-11-22T20:13:58.814Z,20.80
2018-11-22T20:16:28.083Z,20.80
2018-11-22T20:18:56.618Z,20.80
2018-11-22T20:21:26.027Z,20.70
2018-11-22T20:23:54.469Z,20.70
2018-11-22T20:26:23.035Z,20.70
2018-11-22T20:28:51.454Z,20.70
2018-11-22T20:31:20.023Z,20.70
2018-11-22T20:33:48.495Z,20.70
2018-11-22T20:36:16.926Z,20.70
2018-11-22T20:38:45.362Z,20.70
2018-11-22T20:41:13.770Z,20.70
2018-11-22T20:43:42.236Z,20.70
2018-11-22T20:46:10.742Z,20.70
2018-11-22T20:48:39.318Z,20.70
2018-11-22T20:51:07.824Z,20.70
2018-11-22T20:53:36.285Z,20.70
2018-11-22T20:56:04.701Z,20.70
2018-11-22T20:58:33.131Z,20.70
2018-11-22T21:01:18.261Z,20.70
2018-11-22T21:03:46.829Z,20.70
2018-11-22T21:06:15.372Z,20.70
2018-11-22T21:08:48.409Z,20.70
2018-11-22T21:14:17.146Z,20.60
2018-11-22T21:16:45.713Z,20.70
2018-11-22T21:19:14.140Z,20.70
2018-11-22T21:21:42.574Z,20.70
2018-11-22T21:24:11.002Z,20.70
2018-11-22T21:26:39.434Z,20.70
2018-11-22T21:29:07.859Z,20.70
2018-11-22T21:31:36.304Z,20.70
2018-11-22T21:34:04.953Z,20.60
2018-11-22T21:36:33.436Z,20.60
2018-11-22T21:39:01.872Z,20.60
2018-11-22T21:41:30.383Z,20.60
2018-11-22T21:43:58.893Z,20.60
2018-11-22T21:46:31.388Z,20.60
2018-11-22T21:49:08.740Z,20.70
2018-11-22T21:51:39.459Z,20.60
2018-11-22T21:54:06.269Z,20.60
2018-11-22T21:56:34.812Z,20.60
2018-11-22T21:59:03.774Z,20.60
2018-11-22T22:01:49.930Z,20.60
2018-11-22T22:04:18.133Z,20.60
2018-11-22T22:06:46.682Z,20.60
2018-11-22T22:09:15.099Z,20.60
2018-11-22T22:11:43.659Z,20.50
2018-11-22T22:14:12.192Z,20.50
2018-11-22T22:16:40.710Z,20.50
2018-11-22T22:19:09.270Z,20.50
2018-11-22T22:21:37.693Z,20.50
2018-11-22T22:24:06.272Z,20.50
2018-11-22T22:26:34.814Z,20.50
2018-11-22T22:29:03.209Z,20.40
2018-11-22T22:31:31.724Z,20.40
2018-11-22T22:34:00.152Z,20.40
2018-11-22T22:36:28.588Z,20.40
2018-11-22T22:39:12.295Z,20.30
2018-11-22T22:41:40.867Z,20.30
2018-11-22T22:44:09.389Z,20.20
2018-11-22T22:46:37.959Z,20.20
2018-11-22T22:49:06.416Z,20.20
2018-11-22T22:51:56.146Z,20.20
2018-11-22T22:54:24.684Z,20.10
2018-11-22T22:56:53.094Z,20.10
2018-11-22T22:59:21.673Z,20.10
2018-11-22T23:01:50.077Z,20.10
2018-11-22T23:04:18.539Z,20.10
2018-11-22T23:06:47.017Z,20.00
2018-11-22T23:09:15.586Z,20.00
2018-11-22T23:11:44.014Z,20.00
2018-11-22T23:14:12.475Z,20.00
2018-11-22T23:16:40.881Z,19.90
2018-11-22T23:19:09.296Z,19.90
2018-11-22T23:21:37.780Z,19.90
2018-11-22T23:24:06.195Z,19.90
2018-11-22T23:26:34.620Z,19.80
2018-11-22T23:29:15.830Z,19.80
2018-11-22T23:31:44.288Z,19.80
2018-11-22T23:34:12.891Z,19.80
2018-11-22T23:36:41.312Z,19.80
2018-11-22T23:39:11.029Z,19.80
2018-11-22T23:41:39.500Z,19.70
2018-11-22T23:44:07.951Z,19.70
2018-11-22T23:46:36.481Z,19.70
2018-11-22T23:49:04.910Z,19.70
2018-11-22T23:51:33.397Z,19.60
2018-11-22T23:54:01.827Z,19.60
2018-11-22T23:56:30.255Z,19.60
2018-11-22T23:58:58.684Z,19.60
